createdAt,value
2019-04-30T00:00:50.999Z,1.00
2019-04-30T00:03:25.070Z,1.00
2019-04-30T00:05:55.558Z,1.00
2019-04-30T00:08:25.582Z,1.00
2019-04-30T00:10:52.731Z,1.00
2019-04-30T00:13:21.026Z,1.00
2019-04-30T00:15:52.705Z,1.00
2019-04-30T00:18:17.362Z,1.00
2019-04-30T00:20:47.092Z,1.00
2019-04-30T00:23:17.957Z,1.00
2019-04-30T00:25:46.424Z,1.00
2019-04-30T00:28:15.526Z,1.00
2019-04-30T00:30:45.062Z,1.00
2019-04-30T00:33:15.327Z,1.00
2019-04-30T00:35:45.407Z,1.00
2019-04-30T00:38:15.111Z,1.00
2019-04-30T00:40:45.062Z,1.00
2019-04-30T00:43:15.472Z,1.00
2019-04-30T00:45:44.888Z,1.00
2019-04-30T00:48:19.347Z,1.00
2019-04-30T00:50:42.973Z,1.00
2019-04-30T00:53:12.550Z,1.00
2019-04-30T00:55:44.955Z,1.00
2019-04-30T00:58:11.135Z,1.00
2019-04-30T01:00:59.758Z,1.00
2019-04-30T01:03:39.402Z,1.00
2019-04-30T01:06:07.324Z,1.00
2019-04-30T01:08:35.935Z,1.00
2019-04-30T01:11:09.349Z,1.00
2019-04-30T01:13:34.769Z,1.00
2019-04-30T01:16:02.309Z,1.00
2019-04-30T01:18:32.311Z,1.00
2019-04-30T01:21:02.895Z,1.00
2019-04-30T01:23:30.191Z,1.00
2019-04-30T01:25:58.969Z,1.00
2019-04-30T01:28:28.395Z,1.00
2019-04-30T01:31:01.822Z,1.00
2019-04-30T01:33:34.584Z,1.00
2019-04-30T01:35:59.914Z,1.00
2019-04-30T01:38:29.852Z,1.00
2019-04-30T01:40:59.588Z,1.00
2019-04-30T01:43:33.517Z,1.00
2019-04-30T01:46:01.997Z,1.00
2019-04-30T01:48:29.161Z,1.00
2019-04-30T01:50:58.637Z,1.00
2019-04-30T01:53:28.557Z,1.00
2019-04-30T01:56:14.157Z,1.00
2019-04-30T01:58:56.277Z,2.20
2019-04-30T02:01:28.602Z,5.50
2019-04-30T02:03:58.569Z,10.10
2019-04-30T02:06:26.958Z,10.40
2019-04-30T02:08:55.114Z,9.90
2019-04-30T02:11:23.865Z,8.50
2019-04-30T02:13:52.254Z,8.20
2019-04-30T02:16:21.151Z,6.80
2019-04-30T02:18:49.595Z,7.90
2019-04-30T02:21:19.504Z,8.60
2019-04-30T02:23:49.361Z,11.30
2019-04-30T02:26:18.732Z,15.80
2019-04-30T02:28:49.379Z,16.00
2019-04-30T02:31:22.754Z,18.50
2019-04-30T02:33:53.158Z,18.90
2019-04-30T02:36:35.714Z,18.20
2019-04-30T02:39:11.155Z,18.30
2019-04-30T02:41:41.139Z,19.90
2019-04-30T02:44:09.657Z,20.00
2019-04-30T02:46:40.759Z,19.80
2019-04-30T02:49:11.002Z,20.20
2019-04-30T02:51:43.223Z,18.80
2019-04-30T02:54:29.765Z,19.30
2019-04-30T02:57:11.686Z,17.80
2019-04-30T03:00:00.150Z,16.90
2019-04-30T03:02:30.044Z,16.50
2019-04-30T03:05:04.295Z,15.20
2019-04-30T03:07:33.779Z,17.60
2019-04-30T03:10:02.708Z,16.50
2019-04-30T03:12:33.758Z,17.20
2019-04-30T03:15:02.111Z,17.20
2019-04-30T03:17:39.450Z,17.90
2019-04-30T03:20:36.013Z,17.80
2019-04-30T03:23:03.569Z,18.50
2019-04-30T03:25:31.561Z,17.00
2019-04-30T03:28:00.510Z,16.40
2019-04-30T03:30:31.965Z,15.90
2019-04-30T03:33:02.615Z,15.10
2019-04-30T03:35:32.603Z,14.50
2019-04-30T03:38:01.743Z,14.80
2019-04-30T03:40:30.485Z,14.30
2019-04-30T03:43:02.684Z,12.60
2019-04-30T03:45:30.207Z,12.10
2019-04-30T03:50:56.889Z,13.20
2019-04-30T03:53:23.162Z,14.50
2019-04-30T03:55:50.710Z,13.80
2019-04-30T03:58:21.296Z,13.10
2019-04-30T04:00:56.448Z,12.10
2019-04-30T04:03:25.358Z,12.10
2019-04-30T04:06:12.370Z,10.80
2019-04-30T04:08:45.999Z,9.50
2019-04-30T04:11:21.323Z,9.90
2019-04-30T04:13:49.578Z,11.20
2019-04-30T04:16:19.525Z,12.40
2019-04-30T04:18:49.798Z,12.50
2019-04-30T04:21:20.659Z,12.40
2019-04-30T04:23:49.451Z,12.10
2019-04-30T04:26:20.293Z,11.50
2019-04-30T04:28:49.654Z,9.70
2019-04-30T04:31:19.409Z,10.50
2019-04-30T04:33:49.542Z,10.10
2019-04-30T04:36:20.083Z,9.90
2019-04-30T04:38:50.643Z,10.90
2019-04-30T04:41:19.790Z,9.30
2019-04-30T04:43:50.069Z,8.30
2019-04-30T04:46:16.143Z,6.50
2019-04-30T04:48:43.215Z,4.40
2019-04-30T04:51:27.235Z,3.90
2019-04-30T04:53:40.189Z,2.60
2019-04-30T04:56:10.111Z,2.70
2019-04-30T04:58:40.224Z,1.90
2019-04-30T05:01:08.682Z,1.30
2019-04-30T05:03:39.898Z,1.60
2019-04-30T05:06:11.417Z,1.40
2019-04-30T05:08:39.618Z,1.30
2019-04-30T05:11:09.536Z,1.40
2019-04-30T05:13:40.954Z,1.30
2019-04-30T05:16:09.333Z,2.50
2019-04-30T05:18:39.169Z,2.90
2019-04-30T05:21:08.846Z,5.10
2019-04-30T05:23:36.256Z,4.70
2019-04-30T05:26:03.449Z,4.70
2019-04-30T05:28:30.535Z,6.20
2019-04-30T05:30:59.548Z,4.90
2019-04-30T05:33:28.630Z,3.70
2019-04-30T05:35:59.255Z,2.70
2019-04-30T05:38:29.055Z,2.20
2019-04-30T05:40:59.423Z,1.00
2019-04-30T05:43:28.946Z,1.00
2019-04-30T05:45:58.686Z,1.00
2019-04-30T05:48:31.494Z,1.00
2019-04-30T05:51:00.004Z,1.00
2019-04-30T05:53:28.773Z,1.00
2019-04-30T05:55:59.179Z,1.00
2019-04-30T05:58:29.972Z,1.00
2019-04-30T06:00:59.552Z,1.00
2019-04-30T06:03:33.299Z,1.00
2019-04-30T06:06:00.664Z,1.00
2019-04-30T06:08:39.166Z,1.00
2019-04-30T06:11:19.265Z,1.00
2019-04-30T06:14:19.614Z,1.00
2019-04-30T06:17:04.795Z,1.00
2019-04-30T06:19:35.469Z,1.00
2019-04-30T06:22:07.543Z,1.00
2019-04-30T06:24:34.769Z,1.00
2019-04-30T06:27:03.487Z,1.00
2019-04-30T06:29:31.372Z,1.00
2019-04-30T06:31:58.760Z,1.00
2019-04-30T06:34:26.121Z,1.00
2019-04-30T06:36:54.225Z,1.00
2019-04-30T06:39:23.789Z,1.00
2019-04-30T06:42:04.049Z,1.00
2019-04-30T06:44:34.528Z,1.00
2019-04-30T06:46:53.601Z,1.00
2019-04-30T06:49:24.615Z,1.00
2019-04-30T06:51:53.405Z,1.00
2019-04-30T06:54:21.593Z,1.00
2019-04-30T06:56:49.651Z,1.00
2019-04-30T06:59:17.642Z,1.00
2019-04-30T07:01:44.906Z,1.00
2019-04-30T07:04:12.071Z,1.00
2019-04-30T07:06:44.012Z,1.00
2019-04-30T07:09:26.765Z,1.00
2019-04-30T07:12:25.531Z,1.00
2019-04-30T07:14:45.202Z,1.00
2019-04-30T07:17:14.751Z,1.00
2019-04-30T07:19:53.204Z,1.00
2019-04-30T07:22:13.715Z,1.00
2019-04-30T07:24:43.647Z,1.00
2019-04-30T07:27:12.243Z,1.00
2019-04-30T07:29:39.689Z,1.00
2019-04-30T07:32:09.451Z,1.00
2019-04-30T07:34:39.482Z,1.00
2019-04-30T07:37:16.304Z,1.00
2019-04-30T07:39:35.414Z,1.00
2019-04-30T07:42:03.913Z,1.00
2019-04-30T07:44:36.451Z,1.00
2019-04-30T07:47:09.662Z,1.00
2019-04-30T07:49:49.921Z,1.00
2019-04-30T07:52:11.075Z,1.00
2019-04-30T07:54:39.635Z,1.00
2019-04-30T07:57:09.626Z,1.00
2019-04-30T07:59:39.539Z,1.00
2019-04-30T08:02:14.341Z,1.00
2019-04-30T08:04:51.391Z,1.00
2019-04-30T08:07:20.136Z,1.00
2019-04-30T08:09:49.350Z,1.00
2019-04-30T08:12:28.212Z,1.00
2019-04-30T08:14:52.679Z,1.00
2019-04-30T08:17:21.601Z,1.00
2019-04-30T08:19:50.082Z,1.00
2019-04-30T08:22:19.669Z,1.00
2019-04-30T08:24:53.079Z,1.00
2019-04-30T08:27:21.321Z,1.00
2019-04-30T08:29:49.871Z,1.00
2019-04-30T08:32:19.110Z,1.00
2019-04-30T08:34:47.015Z,1.00
2019-04-30T08:37:20.194Z,1.00
2019-04-30T08:39:49.646Z,1.00
2019-04-30T08:42:29.006Z,1.00
2019-04-30T08:44:48.952Z,1.00
2019-04-30T08:47:21.310Z,1.00
2019-04-30T08:49:50.861Z,1.00
2019-04-30T08:52:19.745Z,1.00
2019-04-30T08:54:49.620Z,1.00
2019-04-30T08:57:22.814Z,1.00
2019-04-30T08:59:51.264Z,1.00
2019-04-30T09:02:19.799Z,1.00
2019-04-30T09:04:50.690Z,1.00
2019-04-30T09:07:19.662Z,1.00
2019-04-30T09:09:51.358Z,1.00
2019-04-30T09:12:19.564Z,1.00
2019-04-30T09:14:49.030Z,1.00
2019-04-30T09:17:19.904Z,1.00
2019-04-30T09:19:49.133Z,1.00
2019-04-30T09:22:19.538Z,1.00
2019-04-30T09:24:49.760Z,1.00
2019-04-30T09:27:19.590Z,1.00
2019-04-30T09:29:52.314Z,1.00
2019-04-30T09:32:21.838Z,1.00
2019-04-30T09:34:49.059Z,1.00
2019-04-30T09:37:20.396Z,1.00
2019-04-30T09:39:49.265Z,1.00
2019-04-30T09:42:19.514Z,1.00
2019-04-30T09:44:49.052Z,1.00
2019-04-30T09:47:16.191Z,1.00
2019-04-30T09:49:44.806Z,1.00
2019-04-30T09:52:13.744Z,1.00
2019-04-30T09:54:44.412Z,1.00
2019-04-30T09:57:13.087Z,1.00
2019-04-30T09:59:41.421Z,1.00
2019-04-30T10:02:10.162Z,1.00
2019-04-30T10:04:39.782Z,1.00
2019-04-30T10:07:11.539Z,1.00
2019-04-30T10:09:38.991Z,1.00
2019-04-30T10:12:12.963Z,1.00
2019-04-30T10:14:41.326Z,1.00
2019-04-30T10:17:24.033Z,1.00
2019-04-30T10:19:52.122Z,1.00
2019-04-30T10:22:20.422Z,1.00
2019-04-30T10:24:49.452Z,1.00
2019-04-30T10:27:29.214Z,1.00
2019-04-30T10:29:59.252Z,1.00
2019-04-30T10:32:29.978Z,1.00
2019-04-30T10:34:57.895Z,1.00
2019-04-30T10:37:28.625Z,1.00
2019-04-30T10:39:55.882Z,1.00
2019-04-30T10:42:23.087Z,1.00
2019-04-30T10:44:50.278Z,1.00
2019-04-30T10:47:19.305Z,1.00
2019-04-30T10:49:52.512Z,1.00
2019-04-30T10:52:21.308Z,1.00
2019-04-30T10:54:49.767Z,1.00
2019-04-30T10:57:18.488Z,1.00
2019-04-30T10:59:48.691Z,1.00
2019-04-30T11:02:21.516Z,1.00
2019-04-30T11:04:49.820Z,1.00
2019-04-30T11:07:18.676Z,1.00
2019-04-30T11:09:45.970Z,1.00
2019-04-30T11:12:13.395Z,1.00
2019-04-30T11:14:45.878Z,1.00
2019-04-30T11:17:13.224Z,1.00
2019-04-30T11:19:42.091Z,1.00
2019-04-30T11:22:10.969Z,1.00
2019-04-30T11:24:54.075Z,1.00
2019-04-30T11:27:15.517Z,1.00
2019-04-30T11:29:44.211Z,1.00
2019-04-30T11:32:19.316Z,1.00
2019-04-30T11:34:52.589Z,1.00
2019-04-30T11:37:21.020Z,1.00
2019-04-30T11:39:49.228Z,1.00
2019-04-30T11:42:16.499Z,1.00
2019-04-30T11:44:43.606Z,1.00
2019-04-30T11:47:27.082Z,1.00
2019-04-30T11:49:54.258Z,1.00
2019-04-30T11:52:23.411Z,1.00
2019-04-30T11:54:54.197Z,1.00
2019-04-30T11:57:21.914Z,1.00
2019-04-30T11:59:50.346Z,1.00
2019-04-30T12:02:53.709Z,1.00
2019-04-30T12:05:22.176Z,1.00
2019-04-30T12:07:59.749Z,1.00
2019-04-30T12:10:48.621Z,1.00
2019-04-30T12:13:34.029Z,1.00
2019-04-30T12:16:02.598Z,1.00
2019-04-30T12:18:35.673Z,1.00
2019-04-30T12:21:04.130Z,1.00
2019-04-30T12:23:32.871Z,1.00
2019-04-30T12:26:02.800Z,1.00
2019-04-30T12:28:30.743Z,1.00
2019-04-30T12:30:59.939Z,1.00
2019-04-30T12:33:26.990Z,1.00
2019-04-30T12:35:54.330Z,1.00
2019-04-30T12:38:22.629Z,1.00
2019-04-30T12:40:51.102Z,1.00
2019-04-30T12:46:02.747Z,1.00
2019-04-30T12:48:32.434Z,1.00
2019-04-30T12:51:22.962Z,1.00
2019-04-30T12:54:07.190Z,1.00
2019-04-30T12:56:51.762Z,1.00
2019-04-30T12:59:23.638Z,1.00
2019-04-30T13:01:52.090Z,1.00
2019-04-30T13:04:19.646Z,1.00
2019-04-30T13:06:48.601Z,1.00
2019-04-30T13:09:20.281Z,1.00
2019-04-30T13:11:54.051Z,1.00
2019-04-30T13:14:23.316Z,1.00
2019-04-30T13:16:52.169Z,1.00
2019-04-30T13:19:20.551Z,1.00
2019-04-30T13:21:50.504Z,1.00
2019-04-30T13:24:18.841Z,1.00
2019-04-30T13:26:49.484Z,1.00
2019-04-30T13:29:32.393Z,1.00
2019-04-30T13:32:00.595Z,1.00
2019-04-30T13:34:50.811Z,1.00
2019-04-30T13:37:19.194Z,1.00
2019-04-30T13:39:59.826Z,1.00
2019-04-30T13:42:40.278Z,1.00
2019-04-30T13:45:07.955Z,1.00
2019-04-30T13:47:36.054Z,1.00
2019-04-30T13:50:05.411Z,1.00
2019-04-30T13:52:39.432Z,1.00
2019-04-30T13:55:10.775Z,1.00
2019-04-30T13:57:37.751Z,1.00
2019-04-30T14:00:08.692Z,1.00
2019-04-30T14:02:50.202Z,1.00
2019-04-30T14:05:18.839Z,1.00
2019-04-30T14:08:07.027Z,1.00
2019-04-30T14:10:39.294Z,1.00
2019-04-30T14:13:08.326Z,1.00
2019-04-30T14:15:36.230Z,1.00
2019-04-30T14:18:05.483Z,1.00
2019-04-30T14:20:34.078Z,1.00
2019-04-30T14:23:02.329Z,1.00
2019-04-30T14:25:31.664Z,1.00
2019-04-30T14:27:59.816Z,1.00
2019-04-30T14:30:29.274Z,1.00
2019-04-30T14:32:59.201Z,1.00
2019-04-30T14:35:33.530Z,1.00
2019-04-30T14:38:01.999Z,1.00
2019-04-30T14:40:30.959Z,1.00
2019-04-30T14:43:20.799Z,1.00
2019-04-30T14:46:10.034Z,1.00
2019-04-30T14:48:44.987Z,1.00
2019-04-30T14:51:13.888Z,1.00
2019-04-30T14:54:05.395Z,1.00
2019-04-30T14:57:02.642Z,1.00
2019-04-30T14:59:49.431Z,1.00
2019-04-30T15:02:23.631Z,1.00
2019-04-30T15:04:51.841Z,1.00
2019-04-30T15:07:23.368Z,1.00
2019-04-30T15:09:50.316Z,1.00
2019-04-30T15:12:17.401Z,1.00
2019-04-30T15:14:44.562Z,1.00
2019-04-30T15:17:11.730Z,1.00
2019-04-30T15:19:38.983Z,1.00
2019-04-30T15:22:11.906Z,1.00
2019-04-30T15:24:40.105Z,1.00
2019-04-30T15:27:09.253Z,1.00
2019-04-30T15:29:39.218Z,1.00
2019-04-30T15:32:08.646Z,1.00
2019-04-30T15:34:42.471Z,1.00
2019-04-30T15:37:19.049Z,1.00
2019-04-30T15:39:43.182Z,1.00
2019-04-30T15:42:11.458Z,1.00
2019-04-30T15:44:42.657Z,1.00
2019-04-30T15:47:11.410Z,1.00
2019-04-30T15:49:39.751Z,1.00
2019-04-30T15:52:08.986Z,1.00
2019-04-30T15:54:39.213Z,1.00
2019-04-30T15:57:08.896Z,1.00
2019-04-30T15:59:42.315Z,1.00
2019-04-30T16:02:22.468Z,1.00
2019-04-30T16:05:09.632Z,1.00
2019-04-30T16:07:46.832Z,1.00
2019-04-30T16:10:39.733Z,1.00
2019-04-30T16:13:12.611Z,1.00
2019-04-30T16:15:39.666Z,1.00
2019-04-30T16:18:07.264Z,1.00
2019-04-30T16:20:35.838Z,1.00
2019-04-30T16:23:04.672Z,1.00
2019-04-30T16:25:32.738Z,1.00
2019-04-30T16:28:01.342Z,1.00
2019-04-30T16:30:29.844Z,1.00
2019-04-30T16:32:59.653Z,1.00
2019-04-30T16:35:29.523Z,1.00
2019-04-30T16:38:01.651Z,1.00
2019-04-30T16:40:30.330Z,1.00
2019-04-30T16:42:58.496Z,1.00
2019-04-30T16:45:29.306Z,1.00
2019-04-30T16:47:56.632Z,1.00
2019-04-30T16:50:23.978Z,1.00
2019-04-30T16:52:51.782Z,1.00
2019-04-30T16:55:19.392Z,1.00
2019-04-30T16:57:53.129Z,1.00
2019-04-30T17:00:22.163Z,1.00
2019-04-30T17:02:55.702Z,1.00
2019-04-30T17:05:42.406Z,1.00
2019-04-30T17:08:19.239Z,1.00
2019-04-30T17:11:00.972Z,1.00
2019-04-30T17:13:34.998Z,1.00
2019-04-30T17:16:10.951Z,1.00
2019-04-30T17:18:38.772Z,1.00
2019-04-30T17:21:06.967Z,1.00
2019-04-30T17:23:37.270Z,1.00
2019-04-30T17:26:07.016Z,1.00
2019-04-30T17:28:35.854Z,1.00
2019-04-30T17:31:04.699Z,1.00
2019-04-30T17:33:38.407Z,1.00
2019-04-30T17:36:08.716Z,1.00
2019-04-30T17:38:37.107Z,1.00
2019-04-30T17:41:04.565Z,1.00
2019-04-30T17:43:32.031Z,1.00
2019-04-30T17:46:00.605Z,1.00
2019-04-30T17:48:29.349Z,1.00
2019-04-30T17:50:59.462Z,1.00
2019-04-30T17:53:29.313Z,1.00
2019-04-30T17:56:02.434Z,1.00
2019-04-30T17:58:31.420Z,1.00
2019-04-30T18:01:01.087Z,1.00
2019-04-30T18:03:30.414Z,1.00
2019-04-30T18:05:59.670Z,1.00
2019-04-30T18:08:26.840Z,1.00
2019-04-30T18:10:55.220Z,1.00
2019-04-30T18:13:23.675Z,1.00
2019-04-30T18:15:52.039Z,1.00
2019-04-30T18:18:40.210Z,1.00
2019-04-30T18:21:31.242Z,1.00
2019-04-30T18:24:19.522Z,1.00
2019-04-30T18:27:07.519Z,1.00
2019-04-30T18:29:35.922Z,1.00
2019-04-30T18:32:04.904Z,1.00
2019-04-30T18:34:32.150Z,1.00
2019-04-30T18:36:59.450Z,1.00
2019-04-30T18:39:28.961Z,1.00
2019-04-30T18:41:56.402Z,1.00
2019-04-30T18:44:24.689Z,1.00
2019-04-30T18:46:54.612Z,1.00
2019-04-30T18:49:22.858Z,1.00
2019-04-30T18:51:54.143Z,1.00
2019-04-30T18:54:22.794Z,1.00
2019-04-30T18:56:51.036Z,1.00
2019-04-30T18:59:19.696Z,1.00
2019-04-30T19:01:52.602Z,1.00
2019-04-30T19:04:19.946Z,1.00
2019-04-30T19:06:47.163Z,1.00
2019-04-30T19:09:43.884Z,1.00
2019-04-30T19:12:42.478Z,1.00
2019-04-30T19:15:59.055Z,1.00
2019-04-30T19:18:23.980Z,1.00
2019-04-30T19:20:54.413Z,1.00
2019-04-30T19:23:23.146Z,1.00
2019-04-30T19:25:50.471Z,1.00
2019-04-30T19:28:28.575Z,1.00
2019-04-30T19:30:58.847Z,1.00
2019-04-30T19:33:30.788Z,1.00
2019-04-30T19:35:58.724Z,1.00
2019-04-30T19:38:27.301Z,1.00
2019-04-30T19:40:55.575Z,1.00
2019-04-30T19:43:24.590Z,1.00
2019-04-30T19:45:53.050Z,1.00
2019-04-30T19:48:21.379Z,1.00
2019-04-30T19:50:49.342Z,1.00
2019-04-30T19:53:21.374Z,1.00
2019-04-30T19:55:46.673Z,1.00
2019-04-30T19:58:25.402Z,1.00
2019-04-30T20:00:44.063Z,1.00
2019-04-30T20:03:12.323Z,1.00
2019-04-30T20:05:41.322Z,1.00
2019-04-30T20:08:11.082Z,1.00
2019-04-30T20:10:39.970Z,1.00
2019-04-30T20:13:08.301Z,1.00
2019-04-30T20:15:36.449Z,1.00
2019-04-30T20:18:06.131Z,1.00
2019-04-30T20:20:34.909Z,1.00
2019-04-30T20:23:03.472Z,1.00
2019-04-30T20:25:32.651Z,1.00
2019-04-30T20:27:59.974Z,1.00
2019-04-30T20:30:26.941Z,1.00
2019-04-30T20:32:56.608Z,1.00
2019-04-30T20:35:24.017Z,1.00
2019-04-30T20:38:09.830Z,1.00
2019-04-30T20:40:43.747Z,1.00
2019-04-30T20:43:10.142Z,1.00
2019-04-30T20:45:38.598Z,1.00
2019-04-30T20:48:08.957Z,1.00
2019-04-30T20:50:37.478Z,1.00
2019-04-30T20:53:06.227Z,1.00
2019-04-30T20:55:34.797Z,1.00
2019-04-30T20:58:03.430Z,1.00
2019-04-30T21:00:33.838Z,1.00
2019-04-30T21:03:01.473Z,1.00
2019-04-30T21:05:29.303Z,1.00
2019-04-30T21:07:56.874Z,1.00
2019-04-30T21:10:24.054Z,1.00
2019-04-30T21:12:52.966Z,1.00
2019-04-30T21:15:21.706Z,1.00
2019-04-30T21:17:50.490Z,1.00
2019-04-30T21:20:19.476Z,1.00
2019-04-30T21:22:49.444Z,1.00
2019-04-30T21:25:18.780Z,1.00
2019-04-30T21:27:49.879Z,1.00
2019-04-30T21:30:19.271Z,1.00
2019-04-30T21:33:00.777Z,1.00
2019-04-30T21:35:35.681Z,1.00
2019-04-30T21:38:04.839Z,1.00
2019-04-30T21:40:36.624Z,1.00
2019-04-30T21:43:04.618Z,1.00
2019-04-30T21:45:33.501Z,1.00
2019-04-30T21:48:02.513Z,1.00
2019-04-30T21:50:34.476Z,1.00
2019-04-30T21:53:02.432Z,1.00
2019-04-30T21:55:30.634Z,1.00
2019-04-30T21:57:59.469Z,1.00
2019-04-30T22:00:45.486Z,1.00
2019-04-30T22:03:15.397Z,1.00
2019-04-30T22:05:42.944Z,1.00
2019-04-30T22:08:10.318Z,1.00
2019-04-30T22:10:37.290Z,1.00
2019-04-30T22:13:04.706Z,1.00
2019-04-30T22:15:32.650Z,1.00
2019-04-30T22:18:01.570Z,1.00
2019-04-30T22:20:30.267Z,1.00
2019-04-30T22:22:58.992Z,1.00
2019-04-30T22:25:29.201Z,1.00
2019-04-30T22:28:00.362Z,1.00
2019-04-30T22:30:28.590Z,1.00
2019-04-30T22:32:59.406Z,1.00
2019-04-30T22:35:45.697Z,1.00
2019-04-30T22:38:19.050Z,1.00
2019-04-30T22:40:48.849Z,1.00
2019-04-30T22:43:17.574Z,1.00
2019-04-30T22:45:50.834Z,1.00
2019-04-30T22:48:19.502Z,1.00
2019-04-30T22:50:48.503Z,1.00
2019-04-30T22:53:16.928Z,1.00
2019-04-30T22:55:45.422Z,1.00
2019-04-30T22:58:14.491Z,1.00
2019-04-30T23:00:44.282Z,1.00
2019-04-30T23:03:15.411Z,1.00
2019-04-30T23:05:43.690Z,1.00
2019-04-30T23:08:11.555Z,1.00
2019-04-30T23:10:38.830Z,1.00
2019-04-30T23:13:06.470Z,1.00
2019-04-30T23:15:34.042Z,1.00
2019-04-30T23:18:02.059Z,1.00
2019-04-30T23:20:30.547Z,1.00
2019-04-30T23:23:02.118Z,1.00
2019-04-30T23:25:30.610Z,1.00
2019-04-30T23:27:58.744Z,1.00
2019-04-30T23:30:27.363Z,1.00
2019-04-30T23:32:55.488Z,1.00
2019-04-30T23:35:23.726Z,1.00
2019-04-30T23:37:51.855Z,1.00
2019-04-30T23:40:27.430Z,1.00
2019-04-30T23:42:54.596Z,1.00
2019-04-30T23:45:22.010Z,1.00
2019-04-30T23:47:49.278Z,1.00
2019-04-30T23:50:17.555Z,1.00
2019-04-30T23:52:45.921Z,1.00
2019-04-30T23:55:14.198Z,1.00
2019-04-30T23:57:42.662Z,1.00
